Time;durP1;ratioP1;P1;durP2;ratioP2;P2;SDS_P1;SDS_P2;PMS_P1;PMS_P2;Temp;Humidity;BMP_temperature;BMP_pressure;BME280_temperature;BME280_humidity;BME280_pressure;Samples;Min_cycle;Max_cycle;Signal;HPM_P1;HPM_P2
2023/08/22 00:00:14;;;;;;;3.20;2.70;;;;;;;-141.84;65.13;21549.84;5030618;28;20369;-62
2023/08/22 00:02:42;;;;;;;3.38;2.40;;;;;;;-141.84;64.70;21600.69;5038205;28;20303;-61
2023/08/22 00:05:11;;;;;;;6.03;3.08;;;;;;;-141.84;64.78;21539.69;5044241;28;20244;-61
2023/08/22 00:07:42;;;;;;;3.42;2.80;;;;;;;-141.84;65.28;21521.41;5036021;28;20559;-60
2023/08/22 00:10:11;;;;;;;3.92;2.45;;;;;;;-141.84;64.85;21558.00;5044010;28;20229;-62
2023/08/22 00:12:39;;;;;;;6.40;2.80;;;;;;;-141.84;64.97;21519.34;5044427;28;20776;-61
2023/08/22 00:15:10;;;;;;;4.15;2.80;;;;;;;-141.84;65.55;21513.25;5044587;28;20256;-59
2023/08/22 00:17:39;;;;;;;3.38;2.55;;;;;;;-141.84;65.09;21501.06;5036204;28;20220;-59
2023/08/22 00:20:08;;;;;;;2.60;2.40;;;;;;;-141.84;65.48;21492.94;5044621;28;20680;-60
2023/08/22 00:22:37;;;;;;;4.68;2.65;;;;;;;-141.84;65.39;21529.53;5044782;28;20205;-61
2023/08/22 00:25:09;;;;;;;3.13;2.70;;;;;;;-141.84;64.99;21549.84;5044201;28;20772;-59
2023/08/22 00:27:39;;;;;;;3.83;2.55;;;;;;;-141.84;65.21;21515.28;5025450;28;20226;-60
2023/08/22 00:30:08;;;;;;;4.97;2.88;;;;;;;-141.84;66.29;21499.03;5040075;28;20221;-60
2023/08/22 00:32:37;;;;;;;4.30;2.63;;;;;;;-141.84;66.30;21464.47;5043656;28;20704;-59
2023/08/22 00:35:06;;;;;;;3.63;2.53;;;;;;;-141.84;66.44;21433.97;5043418;28;20760;-60
2023/08/22 00:37:35;;;;;;;5.45;2.60;;;;;;;-141.84;66.36;21472.59;5034259;28;20292;-60
2023/08/22 00:40:05;;;;;;;2.95;2.50;;;;;;;-141.84;66.44;21452.25;5043815;28;20245;-61
2023/08/22 00:42:35;;;;;;;5.97;2.70;;;;;;;-141.84;67.10;21427.88;5042449;28;20225;-61
2023/08/22 00:45:04;;;;;;;5.03;2.70;;;;;;;-141.84;66.54;21452.25;5043900;28;20316;-59
2023/08/22 00:47:33;;;;;;;3.80;2.50;;;;;;;-141.84;66.82;21444.13;5034626;28;20233;-61
2023/08/22 00:50:03;;;;;;;3.65;3.08;;;;;;;-141.84;67.00;21431.94;5043912;28;20639;-60
2023/08/22 00:52:32;;;;;;;3.20;2.90;;;;;;;-141.84;66.61;21452.25;5044297;28;20201;-61
2023/08/22 00:55:00;;;;;;;4.55;3.10;;;;;;;-141.84;66.72;21438.03;5043668;28;20253;-60
2023/08/22 00:57:29;;;;;;;4.78;2.85;;;;;;;-141.84;66.30;21486.81;5035393;28;20316;-59
2023/08/22 01:00:02;;;;;;;4.03;2.72;;;;;;;-141.84;66.82;21431.94;5043516;28;20621;-60
2023/08/22 01:02:30;;;;;;;3.97;2.53;;;;;;;-141.84;66.72;21417.69;5044014;28;20252;-59
2023/08/22 01:04:59;;;;;;;6.00;3.00;;;;;;;-141.84;66.63;21431.94;5043615;28;20288;-61
2023/08/22 01:07:32;;;;;;;4.55;3.08;;;;;;;-141.84;66.56;21415.66;5036337;28;20309;-61
2023/08/22 01:10:05;;;;;;;3.95;2.90;;;;;;;-141.84;66.58;21431.94;5043562;28;20324;-60
2023/08/22 01:12:40;;;;;;;4.78;3.00;;;;;;;-141.84;67.08;21413.63;5042529;28;20704;-60
2023/08/22 01:15:18;;;;;;;4.20;3.00;;;;;;;-141.84;66.38;21436.00;5043452;28;20779;-59
2023/08/22 01:17:49;;;;;;;3.30;2.97;;;;;;;-141.84;66.54;21399.41;5035480;28;20299;-59
2023/08/22 01:20:18;;;;;;;4.40;2.75;;;;;;;-141.84;66.10;21450.22;5043822;28;20229;-61
2023/08/22 01:22:48;;;;;;;4.13;2.90;;;;;;;-141.84;66.44;21403.47;5033048;28;20309;-60
2023/08/22 01:25:17;;;;;;;4.55;2.80;;;;;;;-141.84;66.27;21444.13;5022525;28;20762;-60
2023/08/22 01:28:04;;;;;;;3.70;2.85;;;;;;;-141.84;66.63;21427.88;5015242;28;20333;-59
2023/08/22 01:30:41;;;;;;;5.65;2.72;;;;;;;-141.84;65.53;21468.53;5033007;28;20233;-60
2023/08/22 01:33:17;;;;;;;5.53;3.08;;;;;;;-141.84;65.84;21452.25;5042817;28;20286;-60
2023/08/22 01:35:49;;;;;;;5.30;3.00;;;;;;;-141.84;65.44;21466.50;5035398;28;20637;-60
2023/08/22 01:38:20;;;;;;;4.07;2.65;;;;;;;-141.84;65.41;21460.41;5041675;28;25718;-60
2023/08/22 01:40:50;;;;;;;5.32;3.25;;;;;;;-141.84;65.25;21440.06;5023353;28;20263;-60
2023/08/22 01:43:19;;;;;;;4.72;2.67;;;;;;;-141.84;65.08;21427.88;5022447;28;20237;-60
2023/08/22 01:45:47;;;;;;;4.95;3.22;;;;;;;-141.84;64.94;21470.56;5017602;28;20240;-61
2023/08/22 01:48:16;;;;;;;2.70;2.50;;;;;;;-141.84;63.78;21480.72;5042751;28;20233;-60
2023/08/22 01:50:44;;;;;;;3.80;2.28;;;;;;;-141.84;64.56;21427.88;5042979;28;20308;-60
2023/08/22 01:53:13;;;;;;;3.63;2.75;;;;;;;-141.84;64.93;21460.41;5035468;28;20279;-61
2023/08/22 01:55:43;;;;;;;3.78;2.85;;;;;;;-141.84;65.43;21415.66;5014958;28;20205;-59
2023/08/22 01:58:11;;;;;;;5.15;2.83;;;;;;;-141.84;65.35;21403.47;5022584;28;20317;-60
2023/08/22 02:00:40;;;;;;;3.67;2.50;;;;;;;-141.84;65.19;21429.91;5022659;28;20230;-60
2023/08/22 02:03:08;;;;;;;4.10;2.72;;;;;;;-141.84;65.47;21383.13;5022671;28;20317;-60
2023/08/22 02:05:37;;;;;;;5.63;2.63;;;;;;;-141.84;66.33;21385.16;5014823;28;20241;-59
2023/08/22 02:08:06;;;;;;;3.85;2.78;;;;;;;-141.84;65.77;21370.94;5022721;28;20261;-60
2023/08/22 02:10:35;;;;;;;2.80;2.60;;;;;;;-141.84;65.82;21385.16;5007523;28;20201;-61
2023/08/22 02:13:05;;;;;;;2.85;2.50;;;;;;;-141.84;66.23;21362.81;5022171;28;20604;-60
2023/08/22 02:15:33;;;;;;;3.60;2.65;;;;;;;-141.84;65.70;21364.84;5015386;28;20235;-60
2023/08/22 02:18:02;;;;;;;3.85;2.55;;;;;;;-141.84;65.51;21405.50;5039622;28;20236;-59
2023/08/22 02:20:30;;;;;;;4.20;2.70;;;;;;;-141.84;65.98;21407.53;5022669;28;20640;-61
2023/08/22 02:23:01;;;;;;;4.90;2.75;;;;;;;-141.84;66.25;21362.81;5022430;28;20747;-61
2023/08/22 02:25:30;;;;;;;4.63;2.90;;;;;;;-141.84;66.15;21322.13;5014440;28;20272;-61
2023/08/22 02:27:59;;;;;;;3.83;2.70;;;;;;;-141.84;65.67;21366.88;5022187;28;20328;-60
2023/08/22 02:30:29;;;;;;;3.63;3.03;;;;;;;-141.84;65.72;21389.22;5031825;28;20236;-59
2023/08/22 02:32:57;;;;;;;5.72;2.80;;;;;;;-141.84;64.92;21415.66;5042215;28;20232;-61
2023/08/22 02:35:26;;;;;;;4.78;2.70;;;;;;;-141.84;65.06;21362.81;5030802;28;20308;-60
2023/08/22 02:37:54;;;;;;;3.30;2.88;;;;;;;-141.84;64.96;21383.13;5022854;28;20241;-59
2023/08/22 02:40:22;;;;;;;3.88;2.72;;;;;;;-141.84;65.35;21372.97;5021427;28;20604;-60
2023/08/22 02:42:52;;;;;;;3.55;3.00;;;;;;;-141.84;64.78;21417.69;5021631;28;20323;-61
2023/08/22 02:45:20;;;;;;;3.25;2.88;;;;;;;-141.84;64.79;21399.41;5021523;28;20261;-61
2023/08/22 02:47:53;;;;;;;4.85;3.10;;;;;;;-141.84;65.42;21360.78;4993497;28;20243;-59
2023/08/22 02:50:23;;;;;;;6.13;2.67;;;;;;;-141.84;66.00;21346.53;5002047;28;20256;-60
2023/08/22 02:52:52;;;;;;;4.55;3.00;;;;;;;-141.84;65.64;21318.06;5006381;28;20253;-60
2023/08/22 02:55:20;;;;;;;4.90;3.13;;;;;;;-141.84;65.93;21330.28;5020684;28;20591;-60
2023/08/22 02:57:49;;;;;;;4.50;2.60;;;;;;;-141.84;65.68;21340.44;5014095;28;20324;-60
2023/08/22 03:00:18;;;;;;;5.95;2.97;;;;;;;-141.84;65.76;21336.38;5024457;28;20233;-60
2023/08/22 03:02:46;;;;;;;6.15;3.15;;;;;;;-141.84;65.58;21338.41;5024633;28;20272;-59
2023/08/22 03:05:17;;;;;;;4.03;2.90;;;;;;;-141.84;66.19;21328.25;5024637;28;20209;-60
2023/08/22 03:07:46;;;;;;;4.10;3.03;;;;;;;-141.84;66.19;21305.88;5017327;28;20249;-58
2023/08/22 03:10:14;;;;;;;3.10;2.85;;;;;;;-141.84;66.61;21307.91;5023912;28;20735;-61
2023/08/22 03:12:43;;;;;;;6.80;3.30;;;;;;;-141.84;66.89;21283.50;5024129;28;20221;-61
2023/08/22 03:15:11;;;;;;;5.50;3.03;;;;;;;-141.84;66.82;21291.66;5024846;28;20550;-60
2023/08/22 03:17:40;;;;;;;3.90;3.20;;;;;;;-141.84;65.48;21379.06;5034813;28;20308;-60
2023/08/22 03:20:10;;;;;;;4.25;2.95;;;;;;;-141.84;65.33;21354.66;5044797;28;20286;-59
2023/08/22 03:22:41;;;;;;;3.90;3.13;;;;;;;-141.84;65.35;21381.09;5044479;28;20219;-60
2023/08/22 03:25:10;;;;;;;4.03;2.80;;;;;;;-141.84;65.48;21395.34;5043749;28;20783;-60
2023/08/22 03:27:39;;;;;;;4.50;3.03;;;;;;;-141.84;65.66;21334.34;5036206;28;20255;-60
2023/08/22 03:30:09;;;;;;;5.03;3.45;;;;;;;-141.84;65.32;21370.94;5033106;28;20652;-60
2023/08/22 03:32:38;;;;;;;4.43;3.25;;;;;;;-141.84;65.52;21348.56;5024150;28;20260;-60
2023/08/22 03:35:08;;;;;;;3.80;3.22;;;;;;;-141.84;65.51;21364.84;5024047;28;20206;-61
2023/08/22 03:37:36;;;;;;;4.13;3.13;;;;;;;-141.84;65.16;21344.50;5017265;28;20571;-60
2023/08/22 03:40:08;;;;;;;3.92;3.33;;;;;;;-141.84;64.86;21407.53;5024802;28;20226;-60
2023/08/22 03:42:36;;;;;;;3.87;3.23;;;;;;;-141.84;64.96;21385.16;4997601;28;1102150;-60
2023/08/22 03:45:06;;;;;;;3.33;3.00;;;;;;;-141.84;64.95;21360.78;5024940;28;20232;-59
2023/08/22 03:47:34;;;;;;;4.28;3.03;;;;;;;-141.84;65.09;21322.13;5034954;28;20279;-60
2023/08/22 03:50:04;;;;;;;4.75;3.50;;;;;;;-141.84;65.28;21348.56;5045337;28;20209;-61
2023/08/22 03:52:32;;;;;;;4.00;3.20;;;;;;;-141.84;65.09;21370.94;5044040;28;20308;-60
2023/08/22 03:55:01;;;;;;;4.85;3.22;;;;;;;-141.84;65.21;21360.78;5024554;28;20229;-61
2023/08/22 03:57:30;;;;;;;4.38;3.30;;;;;;;-141.84;65.86;21277.41;5017118;28;20229;-61
2023/08/22 03:59:59;;;;;;;4.53;3.15;;;;;;;-141.84;66.55;21277.41;5025040;28;20270;-59
2023/08/22 04:02:27;;;;;;;6.03;3.60;;;;;;;-141.84;66.62;21297.75;5024836;28;20613;-60
2023/08/22 04:04:56;;;;;;;5.18;3.55;;;;;;;-141.84;66.89;21283.50;5025426;28;20213;-59
2023/08/22 04:07:27;;;;;;;4.65;3.40;;;;;;;-141.84;66.63;21289.59;5022035;28;20227;-60
2023/08/22 04:09:55;;;;;;;5.20;3.70;;;;;;;-141.84;66.26;21301.81;5023923;28;20230;-60
2023/08/22 04:12:24;;;;;;;3.67;3.33;;;;;;;-141.84;66.69;21299.78;5021840;28;20312;-60
2023/08/22 04:14:54;;;;;;;6.25;3.42;;;;;;;-141.84;66.58;21324.19;5017387;28;20252;-61
2023/08/22 04:17:22;;;;;;;4.22;3.47;;;;;;;-141.84;66.93;21293.69;5004947;28;20245;-61
2023/08/22 04:19:51;;;;;;;3.80;3.33;;;;;;;-141.84;67.51;21281.47;5000726;28;20203;-60
2023/08/22 04:22:19;;;;;;;4.10;3.63;;;;;;;-141.84;67.34;21261.16;5004967;28;20337;-60
2023/08/22 04:24:48;;;;;;;5.30;3.30;;;;;;;-141.84;67.13;21267.25;5004033;28;20231;-59
2023/08/22 04:27:17;;;;;;;3.92;3.20;;;;;;;-141.84;67.24;21297.75;5004776;28;20536;-62
2023/08/22 04:29:46;;;;;;;5.35;3.70;;;;;;;-141.84;67.40;21259.13;5006920;28;22491;-60
2023/08/22 04:32:16;;;;;;;5.88;3.75;;;;;;;-141.84;67.09;21289.59;5044401;28;20296;-61
2023/08/22 04:34:45;;;;;;;6.63;3.60;;;;;;;-141.84;67.45;21259.13;5044752;28;20201;-61
2023/08/22 04:37:13;;;;;;;4.35;3.95;;;;;;;-141.84;67.38;21259.13;5043796;28;20649;-61
2023/08/22 04:39:42;;;;;;;5.63;3.85;;;;;;;-141.84;67.07;21263.19;5035562;28;20294;-60
2023/08/22 04:42:10;;;;;;;4.15;3.55;;;;;;;-141.84;66.91;21287.56;5039553;28;20256;-60
2023/08/22 04:44:39;;;;;;;5.25;3.72;;;;;;;-141.84;66.90;21271.31;5024012;28;20723;-61
2023/08/22 04:47:07;;;;;;;4.03;3.58;;;;;;;-141.84;66.40;21326.22;5037935;28;20637;-59
2023/08/22 04:49:37;;;;;;;6.03;3.60;;;;;;;-141.84;65.87;21322.13;5016866;28;20216;-59
2023/08/22 04:52:06;;;;;;;4.60;3.70;;;;;;;-141.84;65.13;21379.06;5023966;28;20242;-60
2023/08/22 04:54:34;;;;;;;4.60;3.13;;;;;;;-141.84;65.99;21326.22;5023293;28;20281;-59
2023/08/22 04:57:03;;;;;;;5.15;3.70;;;;;;;-141.84;65.55;21350.59;5015032;28;20309;-60
2023/08/22 04:59:31;;;;;;;3.90;3.50;;;;;;;-141.84;65.93;21350.59;4996430;28;20261;-60
2023/08/22 05:02:00;;;;;;;4.50;3.60;;;;;;;-141.84;65.67;21350.59;5004310;28;20517;-61
2023/08/22 05:04:28;;;;;;;4.50;3.83;;;;;;;-141.84;65.49;21352.63;5024414;28;20297;-59
2023/08/22 05:06:58;;;;;;;8.02;4.05;;;;;;;-141.84;65.81;21352.63;5023548;28;20699;-60
2023/08/22 05:09:27;;;;;;;5.07;4.07;;;;;;;-141.84;65.08;21415.66;5015054;28;20229;-60
2023/08/22 05:11:55;;;;;;;6.65;3.92;;;;;;;-141.84;64.86;21411.59;5022747;28;20240;-60
2023/08/22 05:14:24;;;;;;;5.82;4.05;;;;;;;-141.84;64.27;21415.66;5023692;28;20253;-61
2023/08/22 05:16:53;;;;;;;4.25;3.33;;;;;;;-141.84;64.74;21452.25;5036053;28;20217;-60
2023/08/22 05:19:21;;;;;;;5.80;3.63;;;;;;;-141.84;64.67;21488.88;5043419;28;20230;-62
2023/08/22 05:21:50;;;;;;;6.15;4.13;;;;;;;-141.84;64.41;21486.81;5036476;28;20275;-60
2023/08/22 05:24:19;;;;;;;4.85;3.70;;;;;;;-141.84;64.00;21509.19;5033111;28;20325;-61
2023/08/22 05:26:48;;;;;;;4.15;3.63;;;;;;;-141.84;63.35;21560.03;5023363;28;20606;-60
2023/08/22 05:29:19;;;;;;;4.03;3.47;;;;;;;-141.84;63.46;21596.63;5023190;28;20214;-61
2023/08/22 05:31:47;;;;;;;5.10;4.07;;;;;;;-141.84;62.78;21625.09;5015866;28;20222;-60
2023/08/22 05:34:16;;;;;;;5.07;3.72;;;;;;;-141.84;62.23;21655.59;5023105;28;20234;-59
2023/08/22 05:36:44;;;;;;;6.68;4.25;;;;;;;-141.84;62.51;21694.22;5022880;28;20240;-59
2023/08/22 05:39:13;;;;;;;7.82;5.07;;;;;;;-141.84;62.23;21708.47;5021208;28;20317;-60
2023/08/22 05:41:42;;;;;;;7.20;3.92;;;;;;;-141.84;61.52;21773.53;5013587;28;20740;-59
2023/08/22 05:44:11;;;;;;;5.15;3.72;;;;;;;-141.84;61.74;21810.13;5002825;28;20230;-60
2023/08/22 05:46:39;;;;;;;5.47;3.97;;;;;;;-141.84;61.03;21836.56;5024053;28;20221;-60
2023/08/22 05:49:08;;;;;;;5.68;4.28;;;;;;;-141.84;59.67;21899.59;5043076;28;20678;-59
2023/08/22 05:51:36;;;;;;;6.15;3.90;;;;;;;-141.84;59.83;21915.88;5035006;28;20235;-60
2023/08/22 05:54:05;;;;;;;4.85;4.20;;;;;;;-141.84;59.77;21928.06;5027791;28;20236;-60
2023/08/22 05:56:34;;;;;;;5.75;3.88;;;;;;;-141.84;59.76;21978.91;5022574;28;20317;-61
2023/08/22 05:59:04;;;;;;;5.47;4.15;;;;;;;-141.84;60.02;21972.81;5022587;28;20210;-61
2023/08/22 06:01:32;;;;;;;7.10;5.05;;;;;;;-141.84;59.74;21976.88;5014869;28;20256;-60
2023/08/22 06:04:01;;;;;;;4.95;4.43;;;;;;;-141.84;60.18;21976.88;5022011;28;20238;-61
2023/08/22 06:06:29;;;;;;;5.35;4.63;;;;;;;-141.84;60.28;21976.88;5023010;28;20264;-61
2023/08/22 06:08:58;;;;;;;5.93;4.88;;;;;;;-141.84;60.16;21966.69;5021864;28;20254;-60
2023/08/22 06:11:26;;;;;;;6.32;5.65;;;;;;;-141.84;60.28;22003.31;5018523;28;20230;-65
2023/08/22 06:13:58;;;;;;;7.25;5.00;;;;;;;-141.84;60.50;21980.94;5022766;28;20283;-63
2023/08/22 06:16:28;;;;;;;7.57;5.18;;;;;;;-141.84;60.15;22043.97;5030352;28;20213;-61
2023/08/22 06:18:56;;;;;;;6.20;5.07;;;;;;;-141.84;59.62;22098.88;5043276;28;20718;-60
2023/08/22 06:21:25;;;;;;;5.82;4.85;;;;;;;-141.84;60.05;22098.88;5042505;28;20231;-61
2023/08/22 06:23:53;;;;;;;7.50;5.70;;;;;;;-141.84;59.00;22133.44;5042664;28;20398;-60
2023/08/22 06:26:22;;;;;;;6.03;5.40;;;;;;;-141.84;59.95;22163.94;5043970;28;20227;-60
2023/08/22 06:28:51;;;;;;;8.68;6.15;;;;;;;-141.84;60.04;22186.31;5044022;28;20227;-61
2023/08/22 06:31:20;;;;;;;8.63;6.07;;;;;;;-141.84;59.51;22241.22;5023374;28;20234;-61
2023/08/22 06:33:50;;;;;;;7.38;6.32;;;;;;;-141.84;58.94;22318.50;5016637;28;20265;-59
2023/08/22 06:36:18;;;;;;;6.95;6.18;;;;;;;-141.84;58.70;22401.88;5023963;28;20234;-60
2023/08/22 06:38:47;;;;;;;7.43;6.30;;;;;;;-141.84;59.08;22359.19;5023619;28;20581;-61
2023/08/22 06:41:16;;;;;;;10.60;6.70;;;;;;;-141.84;59.71;22283.94;5023990;28;20724;-59
2023/08/22 06:43:45;;;;;;;7.40;5.78;;;;;;;-141.84;59.70;22285.97;5016774;28;21140;-60
2023/08/22 06:46:15;;;;;;;6.35;5.75;;;;;;;-141.84;59.76;22257.50;5030549;28;20229;-60
2023/08/22 06:48:44;;;;;;;9.55;6.47;;;;;;;-141.84;60.70;22259.53;5043541;28;20243;-60
2023/08/22 06:51:14;;;;;;;9.10;6.35;;;;;;;-141.84;61.43;22196.50;5043566;28;20221;-61
2023/08/22 06:53:42;;;;;;;6.53;5.68;;;;;;;-141.84;61.24;22210.72;5024979;28;20220;-60
2023/08/22 06:56:11;;;;;;;11.68;5.63;;;;;;;-141.84;60.96;22239.19;5023599;28;20233;-60
2023/08/22 06:58:39;;;;;;;7.22;5.22;;;;;;;-141.84;61.93;22200.56;5024211;28;20573;-62
2023/08/22 07:01:08;;;;;;;6.93;6.03;;;;;;;-141.84;61.54;22253.44;5023536;28;20268;-63
2023/08/22 07:03:37;;;;;;;8.45;6.78;;;;;;;-141.84;59.50;22310.38;5016085;28;20230;-61
2023/08/22 07:06:05;;;;;;;8.52;5.97;;;;;;;-141.84;59.15;22312.41;5023210;28;20226;-61
2023/08/22 07:08:35;;;;;;;10.18;6.50;;;;;;;-141.84;60.42;22227.00;5023144;28;20222;-60
2023/08/22 07:11:04;;;;;;;8.70;6.20;;;;;;;-141.84;60.53;22220.91;5023355;28;20305;-61
2023/08/22 07:13:34;;;;;;;9.27;6.32;;;;;;;-141.84;60.81;22208.69;5016274;28;20210;-59
2023/08/22 07:16:03;;;;;;;7.30;6.10;;;;;;;-141.84;61.83;22212.75;5028995;28;20348;-60
2023/08/22 07:18:31;;;;;;;6.53;5.93;;;;;;;-141.84;61.83;22155.81;5043482;28;20225;-60
2023/08/22 07:21:04;;;;;;;10.60;6.30;;;;;;;-141.84;62.79;22123.28;5036171;28;20221;-61
2023/08/22 07:23:33;;;;;;;9.48;6.68;;;;;;;-141.84;62.11;22159.88;5027458;28;20562;-60
2023/08/22 07:26:03;;;;;;;6.63;5.90;;;;;;;-141.84;62.26;22109.03;5032810;28;20271;-60
2023/08/22 07:28:31;;;;;;;8.30;6.40;;;;;;;-141.84;62.30;22145.66;5024143;28;20305;-61
2023/08/22 07:31:00;;;;;;;6.13;5.53;;;;;;;-141.84;61.94;22151.75;5039971;28;20692;-60
2023/08/22 07:33:28;;;;;;;7.00;5.70;;;;;;;-141.84;62.55;22100.91;5034765;28;20364;-60
2023/08/22 07:35:57;;;;;;;8.02;6.10;;;;;;;-141.84;62.38;22113.13;5025006;28;20664;-60
2023/08/22 07:38:26;;;;;;;6.85;5.70;;;;;;;-141.84;61.89;22184.28;5022369;28;20759;-60
2023/08/22 07:40:54;;;;;;;6.38;5.75;;;;;;;-141.84;61.59;22147.69;5024376;28;20321;-60
2023/08/22 07:43:24;;;;;;;7.72;6.10;;;;;;;-141.84;60.50;22224.97;5021624;28;20780;-60
2023/08/22 07:45:52;;;;;;;7.20;5.88;;;;;;;-141.84;60.91;22229.03;5025865;28;20253;-60
2023/08/22 07:48:21;;;;;;;9.23;6.60;;;;;;;-141.84;60.73;22212.75;5027960;28;20217;-60
2023/08/22 07:50:49;;;;;;;7.43;5.90;;;;;;;-141.84;62.00;22143.63;5030030;28;20592;-60
2023/08/22 07:53:18;;;;;;;7.22;5.80;;;;;;;-141.84;61.05;22184.28;5004631;28;20252;-60
2023/08/22 07:55:48;;;;;;;6.43;5.75;;;;;;;-141.84;61.13;22202.59;5027141;28;20249;-66
2023/08/22 07:58:16;;;;;;;6.30;5.70;;;;;;;-141.84;61.56;22157.84;5026749;28;20288;-67
2023/08/22 08:00:49;;;;;;;7.20;5.68;;;;;;;-141.84;62.21;22184.28;5025058;28;20213;-61
2023/08/22 08:03:18;;;;;;;6.18;5.57;;;;;;;-141.84;61.81;22178.19;4999487;28;20801;-61
2023/08/22 08:05:47;;;;;;;7.90;5.05;;;;;;;-141.84;61.38;22166.00;5000813;28;20225;-59
2023/08/22 08:08:16;;;;;;;6.45;5.20;;;;;;;-141.84;61.42;22233.09;5026898;28;20244;-60
2023/08/22 08:10:44;;;;;;;8.18;5.63;;;;;;;-141.84;60.32;22261.56;5027345;28;20234;-60
2023/08/22 08:13:13;;;;;;;6.15;5.00;;;;;;;-141.84;60.21;22283.94;5024257;28;20312;-67
2023/08/22 08:15:41;;;;;;;10.60;6.38;;;;;;;-141.84;59.36;22265.63;5028278;28;20812;-61
2023/08/22 08:18:11;;;;;;;6.97;5.32;;;;;;;-141.84;59.67;22288.00;5029131;28;20330;-66
2023/08/22 08:20:40;;;;;;;6.95;6.05;;;;;;;-141.84;58.33;22322.56;5020887;28;20221;-67
2023/08/22 08:23:08;;;;;;;6.13;5.53;;;;;;;-141.84;58.09;22346.97;5029623;28;20289;-67
2023/08/22 08:25:37;;;;;;;6.65;5.60;;;;;;;-141.84;58.20;22355.13;5016398;28;20335;-61
2023/08/22 08:28:06;;;;;;;6.10;4.32;;;;;;;-141.84;59.17;22322.56;5022021;28;20247;-61
2023/08/22 08:30:35;;;;;;;5.43;4.93;;;;;;;-141.84;58.79;22338.84;5026836;28;20234;-60
2023/08/22 08:33:05;;;;;;;7.57;5.68;;;;;;;-141.84;57.31;22383.59;5024753;28;20237;-67
2023/08/22 08:35:35;;;;;;;5.93;4.78;;;;;;;-141.84;58.24;22365.28;5027175;28;20582;-61
2023/08/22 08:38:04;;;;;;;5.25;4.60;;;;;;;-141.84;58.33;22369.34;5025831;28;20305;-68
2023/08/22 08:40:36;;;;;;;5.13;4.63;;;;;;;-141.84;58.89;22371.38;5029453;28;20198;-66
2023/08/22 08:43:04;;;;;;;7.85;5.13;;;;;;;-141.84;57.21;22412.06;5011432;28;20337;-67
2023/08/22 08:45:35;;;;;;;4.78;4.38;;;;;;;-141.84;58.20;22399.84;5018743;28;20317;-68
2023/08/22 08:48:04;;;;;;;5.93;4.60;;;;;;;-141.84;57.10;22416.13;5040163;28;20232;-66
2023/08/22 08:50:36;;;;;;;7.40;5.25;;;;;;;-141.84;57.02;22416.13;5012698;28;20217;-67
2023/08/22 08:53:05;;;;;;;6.03;4.93;;;;;;;-141.84;56.65;22448.66;5024274;28;20331;-67
2023/08/22 08:55:35;;;;;;;10.30;5.63;;;;;;;-141.84;56.32;22477.13;5026110;28;20713;-67
2023/08/22 08:58:04;;;;;;;6.38;5.07;;;;;;;-141.84;56.87;22469.00;5024944;28;20232;-60
2023/08/22 09:00:34;;;;;;;7.40;5.60;;;;;;;-141.84;57.00;22473.06;5030828;28;20679;-60
2023/08/22 09:03:03;;;;;;;6.70;4.85;;;;;;;-141.84;56.79;22464.94;5026797;28;20230;-67
2023/08/22 09:05:31;;;;;;;5.82;5.03;;;;;;;-141.84;56.34;22493.41;5021998;28;20234;-68
2023/08/22 09:08:17;;;;;;;5.85;4.70;;;;;;;-141.84;56.34;22578.81;5027617;28;20289;-67
2023/08/22 09:10:50;;;;;;;6.60;4.60;;;;;;;-141.84;56.20;22560.53;5025300;28;20229;-67
2023/08/22 09:13:26;;;;;;;7.18;4.65;;;;;;;-141.84;55.57;22713.06;5026528;28;20774;-67
2023/08/22 09:16:09;;;;;;;5.22;4.70;;;;;;;-141.84;55.07;22698.81;5026839;28;20221;-61
2023/08/22 09:18:42;;;;;;;7.13;5.10;;;;;;;-141.84;54.24;22763.91;5031511;28;20217;-66
2023/08/22 09:21:11;;;;;;;8.52;4.88;;;;;;;-141.84;53.82;22843.22;5037093;28;20197;-66
2023/08/22 09:23:42;;;;;;;7.47;5.10;;;;;;;-141.84;53.66;22847.28;5016249;28;20321;-66
2023/08/22 09:26:11;;;;;;;6.95;4.97;;;;;;;-141.84;53.34;22877.81;5026091;28;20230;-67
2023/08/22 09:28:40;;;;;;;7.45;4.70;;;;;;;-141.84;54.34;22796.44;5029998;28;20226;-60
2023/08/22 09:31:09;;;;;;;8.02;5.05;;;;;;;-141.84;53.88;22800.50;5025938;28;20860;-67
2023/08/22 09:33:46;;;;;;;6.45;5.10;;;;;;;-141.84;54.45;22711.03;5028065;28;20329;-60
2023/08/22 09:36:18;;;;;;;5.13;4.45;;;;;;;-141.84;54.65;22700.84;5024206;28;20572;-67
2023/08/22 09:38:55;;;;;;;7.43;4.80;;;;;;;-141.84;55.44;22684.59;5026506;28;21010;-61
2023/08/22 09:41:25;;;;;;;5.68;4.38;;;;;;;-141.84;54.55;22690.69;5030651;28;20205;-60
2023/08/22 09:44:00;;;;;;;6.93;4.85;;;;;;;-141.84;53.97;22700.84;5034570;28;20251;-61
2023/08/22 09:46:30;;;;;;;7.55;4.82;;;;;;;-141.84;53.96;22737.47;5023533;28;20221;-60
2023/08/22 09:49:01;;;;;;;7.28;4.90;;;;;;;-141.84;54.50;22863.56;5027038;28;20226;-61
2023/08/22 09:51:32;;;;;;;8.65;5.25;;;;;;;-141.84;52.56;22875.78;5024452;28;20344;-66
2023/08/22 09:54:04;;;;;;;7.30;5.18;;;;;;;-141.84;53.33;22879.84;5024251;28;20272;-66
2023/08/22 09:56:36;;;;;;;5.47;4.97;;;;;;;-141.84;52.31;22963.22;5022842;28;20236;-60
2023/08/22 09:59:06;;;;;;;5.00;4.50;;;;;;;-141.84;52.37;22959.16;5019098;28;20858;-68
2023/08/22 10:01:38;;;;;;;8.23;4.78;;;;;;;-141.84;52.28;22967.31;5028202;28;20236;-66
2023/08/22 10:04:07;;;;;;;8.70;5.10;;;;;;;-141.84;52.67;23030.34;4990727;28;20222;-60
2023/08/22 10:06:37;;;;;;;7.07;5.07;;;;;;;-141.84;51.66;23123.94;5027142;28;20221;-67
2023/08/22 10:09:17;;;;;;;6.97;5.03;;;;;;;-141.84;51.21;23107.66;5023888;28;20248;-67
2023/08/22 10:11:49;;;;;;;7.57;5.13;;;;;;;-141.84;51.23;23125.97;5024108;28;20258;-60
2023/08/22 10:14:24;;;;;;;5.28;4.78;;;;;;;-141.84;51.87;23083.25;5019430;28;20234;-60
2023/08/22 10:16:54;;;;;;;5.78;4.85;;;;;;;-141.84;52.27;23162.56;5017653;28;20651;-67
2023/08/22 10:19:24;;;;;;;5.72;4.03;;;;;;;-141.84;52.25;23189.00;5029023;28;20229;-67
2023/08/22 10:21:53;;;;;;;6.20;4.57;;;;;;;-141.84;50.87;23294.78;5021400;28;20304;-60
2023/08/22 10:24:29;;;;;;;7.78;5.88;;;;;;;-141.84;50.17;23262.25;5024910;28;20257;-59
2023/08/22 10:27:03;;;;;;;8.85;5.40;;;;;;;-141.84;50.72;23268.34;5005699;28;20268;-67
2023/08/22 10:29:37;;;;;;;7.32;4.97;;;;;;;-141.84;50.69;23319.19;5013143;28;20229;-67
2023/08/22 10:32:22;;;;;;;11.00;5.68;;;;;;;-141.84;50.66;23331.41;5019337;28;20257;-65
2023/08/22 10:35:07;;;;;;;8.88;6.10;;;;;;;-141.84;50.40;23313.09;5028379;28;20659;-60
2023/08/22 10:37:47;;;;;;;7.65;5.57;;;;;;;-141.84;50.67;23278.50;5028563;28;20201;-60
2023/08/22 10:40:25;;;;;;;6.95;5.80;;;;;;;-141.84;51.26;23207.31;5025557;28;20229;-61
2023/08/22 10:43:11;;;;;;;7.00;5.82;;;;;;;-141.84;50.57;23201.22;5016180;28;20260;-60
2023/08/22 10:45:51;;;;;;;7.85;6.38;;;;;;;-141.84;49.96;23201.22;5025481;28;20222;-60
2023/08/22 10:48:21;;;;;;;6.45;5.85;;;;;;;-141.84;50.54;23221.56;5015675;28;21010;-60
2023/08/22 10:50:52;;;;;;;7.53;5.97;;;;;;;-141.84;50.45;23213.44;5027375;28;20317;-60
2023/08/22 10:53:25;;;;;;;8.05;6.20;;;;;;;-141.84;50.54;23170.72;5032143;28;20190;-60
2023/08/22 10:55:57;;;;;;;7.85;5.60;;;;;;;-141.84;51.23;23207.31;5032599;28;20201;-60
2023/08/22 10:58:39;;;;;;;8.27;5.70;;;;;;;-141.84;51.54;23213.44;5027065;28;20221;-61
2023/08/22 11:01:10;;;;;;;6.70;5.72;;;;;;;-141.84;51.45;23252.06;5028205;28;20693;-67
2023/08/22 11:03:38;;;;;;;7.22;5.43;;;;;;;-141.84;51.85;23197.16;5018788;28;20254;-68
2023/08/22 11:06:19;;;;;;;9.35;6.22;;;;;;;-141.84;50.83;23280.56;5028291;28;20635;-67
2023/08/22 11:08:48;;;;;;;6.50;5.90;;;;;;;-141.84;51.05;23254.09;5018857;28;20233;-67
2023/08/22 11:11:19;;;;;;;6.97;6.10;;;;;;;-141.84;51.74;23270.38;5022355;28;20962;-66
2023/08/22 11:13:49;;;;;;;9.70;6.18;;;;;;;-141.84;50.52;23304.97;5023429;28;20241;-68
2023/08/22 11:16:19;;;;;;;7.53;6.25;;;;;;;-141.84;50.29;23302.94;5037298;28;20771;-67
2023/08/22 11:18:50;;;;;;;8.75;6.43;;;;;;;-141.84;50.54;23347.69;5016223;28;20701;-61
2023/08/22 11:21:19;;;;;;;6.88;6.05;;;;;;;-141.84;49.93;23400.56;5028663;28;20284;-61
2023/08/22 11:23:47;;;;;;;9.18;6.70;;;;;;;-141.84;49.73;23463.63;5024874;28;20328;-60
2023/08/22 11:26:22;;;;;;;8.98;6.45;;;;;;;-141.84;49.76;23429.03;5013029;28;20245;-59
2023/08/22 11:28:51;;;;;;;8.75;6.43;;;;;;;-141.84;49.74;23465.66;5028725;28;20225;-61